createdAt,value
2022-12-15T00:00:48.858Z,85.78
2022-12-15T00:03:15.520Z,85.92
2022-12-15T00:05:42.486Z,86.44
2022-12-15T00:08:10.295Z,87.77
2022-12-15T00:10:38.949Z,87.61
2022-12-15T00:13:12.841Z,86.95
2022-12-15T00:15:39.560Z,87.48
2022-12-15T00:18:06.966Z,87.64
2022-12-15T00:20:33.481Z,87.50
2022-12-15T00:23:07.543Z,87.13
2022-12-15T00:25:34.106Z,86.92
2022-12-15T00:28:00.576Z,86.72
2022-12-15T00:30:26.967Z,87.26
2022-12-15T00:32:53.308Z,86.92
2022-12-15T00:35:19.850Z,87.77
2022-12-15T00:37:46.193Z,88.45
2022-12-15T00:40:13.628Z,88.38
2022-12-15T00:42:40.020Z,88.35
2022-12-15T00:45:07.004Z,88.49
2022-12-15T00:47:33.741Z,89.27
2022-12-15T00:50:00.368Z,89.28
2022-12-15T00:52:27.133Z,89.38
2022-12-15T00:54:53.887Z,88.82
2022-12-15T00:57:20.596Z,89.31
2022-12-15T00:59:46.910Z,88.94
2022-12-15T01:02:13.488Z,89.03
2022-12-15T01:04:40.180Z,88.54
2022-12-15T01:07:06.771Z,88.50
2022-12-15T01:09:33.211Z,87.84
2022-12-15T01:11:59.711Z,88.20
2022-12-15T01:14:26.869Z,88.59
2022-12-15T01:16:53.764Z,88.28
2022-12-15T01:19:20.580Z,87.99
2022-12-15T01:21:46.969Z,88.37
2022-12-15T01:24:13.372Z,87.97
2022-12-15T01:26:39.722Z,88.10
2022-12-15T01:29:06.564Z,87.78
2022-12-15T01:31:32.915Z,87.39
2022-12-15T01:33:59.816Z,89.11
2022-12-15T01:36:26.172Z,88.38
2022-12-15T01:38:54.561Z,90.00
2022-12-15T01:41:21.563Z,90.32
2022-12-15T01:43:49.873Z,90.10
2022-12-15T01:46:20.350Z,89.47
2022-12-15T01:49:08.523Z,90.23
2022-12-15T01:51:49.744Z,88.91
2022-12-15T01:54:28.056Z,88.57
2022-12-15T01:56:58.393Z,88.54
2022-12-15T01:59:32.811Z,88.40
2022-12-15T02:02:01.254Z,88.61
2022-12-15T02:04:28.499Z,89.43
2022-12-15T02:06:55.033Z,89.90
2022-12-15T02:09:23.416Z,90.23
2022-12-15T02:12:00.710Z,90.28
2022-12-15T02:14:32.445Z,91.34
2022-12-15T02:17:13.923Z,90.70
2022-12-15T02:20:03.397Z,93.29
2022-12-15T02:23:07.748Z,91.08
2022-12-15T02:25:37.036Z,91.84
2022-12-15T02:28:10.520Z,91.69
2022-12-15T02:30:36.994Z,91.24
2022-12-15T02:33:09.480Z,90.57
2022-12-15T02:36:00.253Z,91.73
2022-12-15T02:38:36.049Z,91.11
2022-12-15T02:41:04.811Z,92.68
2022-12-15T02:43:35.210Z,92.51
2022-12-15T02:46:13.964Z,93.10
2022-12-15T02:49:02.771Z,93.48
2022-12-15T02:51:41.190Z,93.99
2022-12-15T02:54:33.833Z,94.14
2022-12-15T02:57:03.241Z,93.03
2022-12-15T02:59:45.037Z,92.50
2022-12-15T03:02:13.872Z,91.91
2022-12-15T03:04:43.241Z,92.04
2022-12-15T03:07:11.051Z,92.18
2022-12-15T03:09:37.636Z,92.08
2022-12-15T03:12:04.344Z,91.89
2022-12-15T03:14:30.724Z,91.75
2022-12-15T03:16:57.254Z,91.96
2022-12-15T03:19:23.649Z,92.41
2022-12-15T03:21:50.038Z,91.41
2022-12-15T03:24:16.418Z,92.14
2022-12-15T03:26:42.791Z,92.50
2022-12-15T03:29:09.591Z,93.05
2022-12-15T03:31:37.057Z,93.80
2022-12-15T03:34:03.388Z,94.10
2022-12-15T03:36:29.691Z,94.34
2022-12-15T03:38:56.165Z,93.98
2022-12-15T03:41:22.745Z,94.38
2022-12-15T03:43:50.419Z,92.63
2022-12-15T03:46:16.910Z,92.27
2022-12-15T03:48:43.656Z,92.98
2022-12-15T03:51:10.207Z,93.50
2022-12-15T03:53:36.868Z,94.08
2022-12-15T03:56:03.707Z,93.27
2022-12-15T03:58:31.121Z,92.95
2022-12-15T04:00:57.537Z,92.23
2022-12-15T04:03:24.383Z,92.66
2022-12-15T04:05:50.968Z,93.85
2022-12-15T04:08:17.532Z,93.14
2022-12-15T04:10:43.924Z,93.25
2022-12-15T04:13:11.620Z,93.29
2022-12-15T04:15:39.550Z,92.74
2022-12-15T04:18:08.978Z,93.07
2022-12-15T04:20:35.958Z,93.06
2022-12-15T04:23:02.572Z,93.71
2022-12-15T04:25:28.913Z,92.39
2022-12-15T04:28:01.253Z,91.60
2022-12-15T04:30:28.169Z,92.00
2022-12-15T04:32:54.536Z,92.21
2022-12-15T04:35:20.959Z,92.41
2022-12-15T04:37:47.420Z,92.25
2022-12-15T04:40:13.999Z,92.53
2022-12-15T04:42:43.605Z,91.91
2022-12-15T04:45:15.593Z,92.56
2022-12-15T04:47:46.719Z,92.43
2022-12-15T04:50:13.126Z,92.21
2022-12-15T04:52:40.652Z,91.73
2022-12-15T04:55:07.507Z,91.55
2022-12-15T04:57:35.293Z,92.83
2022-12-15T05:00:01.850Z,93.70
2022-12-15T05:02:28.465Z,92.28
2022-12-15T05:04:54.975Z,93.52
2022-12-15T05:07:21.620Z,94.05
2022-12-15T05:09:48.193Z,95.33
2022-12-15T05:12:14.506Z,95.50
2022-12-15T05:14:40.894Z,94.52
2022-12-15T05:17:08.575Z,94.96
2022-12-15T05:19:35.025Z,95.34
2022-12-15T05:22:01.406Z,95.19
2022-12-15T05:24:27.846Z,94.98
2022-12-15T05:26:55.662Z,94.96
2022-12-15T05:29:22.292Z,95.10
2022-12-15T05:31:48.752Z,94.50
2022-12-15T05:34:16.477Z,94.05
2022-12-15T05:36:42.858Z,92.87
2022-12-15T05:39:09.298Z,92.49
2022-12-15T05:41:35.638Z,93.62
2022-12-15T05:44:02.125Z,93.36
2022-12-15T05:46:28.582Z,91.65
2022-12-15T05:48:55.297Z,92.47
2022-12-15T05:51:21.699Z,94.07
2022-12-15T05:53:48.252Z,94.92
2022-12-15T05:56:15.705Z,95.04
2022-12-15T05:58:45.582Z,95.25
2022-12-15T06:01:17.565Z,94.94
2022-12-15T06:03:44.609Z,95.38
2022-12-15T06:06:13.285Z,94.82
2022-12-15T06:08:42.571Z,94.33
2022-12-15T06:11:13.303Z,95.49
2022-12-15T06:13:40.613Z,94.54
2022-12-15T06:16:11.781Z,93.63
2022-12-15T06:18:39.883Z,92.97
2022-12-15T06:21:10.218Z,93.12
2022-12-15T06:23:36.639Z,93.08
2022-12-15T06:26:15.267Z,92.52
2022-12-15T06:28:42.281Z,92.67
2022-12-15T06:31:10.700Z,92.81
2022-12-15T06:33:38.654Z,93.00
2022-12-15T06:36:13.220Z,92.77
2022-12-15T06:38:41.467Z,93.08
2022-12-15T06:41:08.022Z,93.11
2022-12-15T06:43:35.039Z,93.27
2022-12-15T06:46:02.303Z,93.62
2022-12-15T06:48:29.994Z,92.64
2022-12-15T06:50:56.635Z,92.38
2022-12-15T06:53:24.432Z,93.08
2022-12-15T06:55:51.226Z,92.78
2022-12-15T06:58:17.911Z,91.55
2022-12-15T07:00:46.911Z,91.73
2022-12-15T07:03:16.811Z,91.94
2022-12-15T07:05:44.865Z,92.60
2022-12-15T07:08:13.048Z,92.13
2022-12-15T07:10:40.117Z,92.09
2022-12-15T07:13:09.670Z,92.08
2022-12-15T07:15:36.114Z,92.12
2022-12-15T07:18:02.752Z,91.90
2022-12-15T07:20:29.354Z,92.94
2022-12-15T07:22:55.792Z,94.56
2022-12-15T07:25:22.230Z,94.79
2022-12-15T07:27:48.881Z,95.75
2022-12-15T07:30:16.701Z,94.90
2022-12-15T07:32:43.404Z,94.09
2022-12-15T07:35:17.554Z,93.60
2022-12-15T07:37:45.161Z,94.08
2022-12-15T07:40:11.896Z,93.56
2022-12-15T07:42:38.340Z,92.96
2022-12-15T07:45:06.096Z,92.40
2022-12-15T07:47:33.771Z,93.01
2022-12-15T07:50:00.209Z,93.04
2022-12-15T07:52:26.589Z,92.73
2022-12-15T07:54:53.092Z,93.51
2022-12-15T07:57:19.467Z,92.79
2022-12-15T07:59:46.535Z,92.63
2022-12-15T08:02:14.078Z,92.96
2022-12-15T08:04:40.860Z,93.02
2022-12-15T08:07:07.981Z,92.32
2022-12-15T08:09:34.702Z,92.06
2022-12-15T08:12:01.142Z,93.42
2022-12-15T08:14:27.667Z,92.56
2022-12-15T08:16:54.680Z,91.58
2022-12-15T08:19:21.221Z,91.52
2022-12-15T08:21:48.098Z,89.09
2022-12-15T08:24:15.515Z,89.32
2022-12-15T08:26:43.540Z,87.63
2022-12-15T08:32:01.541Z,88.66
2022-12-15T08:34:28.344Z,87.82
2022-12-15T08:36:54.745Z,84.58
2022-12-15T08:39:21.446Z,82.06
2022-12-15T08:41:47.905Z,78.34
2022-12-15T08:44:14.262Z,77.98
2022-12-15T08:46:40.574Z,76.67
2022-12-15T08:49:06.915Z,75.34
2022-12-15T08:51:33.546Z,71.33
2022-12-15T08:54:02.099Z,68.38
2022-12-15T08:56:29.699Z,67.97
2022-12-15T08:58:58.880Z,64.76
2022-12-15T09:01:27.011Z,63.39
2022-12-15T09:03:55.366Z,60.76
2022-12-15T09:06:25.105Z,57.35
2022-12-15T09:08:54.632Z,54.66
2022-12-15T09:11:20.988Z,59.80
2022-12-15T09:13:47.546Z,58.78
2022-12-15T09:16:15.898Z,59.19
2022-12-15T09:18:44.903Z,63.88
2022-12-15T09:21:12.908Z,69.59
2022-12-15T09:23:39.901Z,71.64
2022-12-15T09:26:12.511Z,73.05
2022-12-15T09:28:39.252Z,71.62
2022-12-15T09:31:08.037Z,67.12
2022-12-15T09:33:35.435Z,65.31
2022-12-15T09:36:02.935Z,66.29
2022-12-15T09:38:29.592Z,65.47
2022-12-15T09:40:56.367Z,65.74
2022-12-15T09:43:34.768Z,62.62
2022-12-15T09:46:15.004Z,60.57
2022-12-15T09:48:45.237Z,59.51
2022-12-15T09:51:18.489Z,55.71
2022-12-15T09:53:54.796Z,60.36
2022-12-15T09:56:32.459Z,60.96
2022-12-15T09:59:07.331Z,63.42
2022-12-15T10:01:41.056Z,66.57
2022-12-15T10:04:18.830Z,66.19
2022-12-15T10:07:03.789Z,67.19
2022-12-15T10:09:30.508Z,66.24
2022-12-15T10:12:04.542Z,65.32
2022-12-15T10:14:37.365Z,62.43
2022-12-15T10:17:22.820Z,59.42
2022-12-15T10:20:01.886Z,56.38
2022-12-15T10:22:35.619Z,56.57
2022-12-15T10:28:18.115Z,45.76
2022-12-15T10:30:57.523Z,45.67
2022-12-15T10:33:27.077Z,46.01
2022-12-15T10:35:54.924Z,50.34
2022-12-15T10:38:41.987Z,53.06
2022-12-15T10:41:12.733Z,55.04
2022-12-15T10:43:41.654Z,54.95
2022-12-15T10:46:23.494Z,57.43
2022-12-15T10:48:52.779Z,58.94
2022-12-15T10:51:30.929Z,61.05
2022-12-15T10:54:00.380Z,58.51
2022-12-15T10:56:33.301Z,61.91
2022-12-15T10:59:22.410Z,61.69
2022-12-15T11:01:50.874Z,58.65
2022-12-15T11:04:32.989Z,60.91
2022-12-15T11:07:03.059Z,67.68
2022-12-15T11:09:35.289Z,70.36
2022-12-15T11:12:02.780Z,70.58
2022-12-15T11:14:43.355Z,74.21
2022-12-15T11:17:14.015Z,74.82
2022-12-15T11:20:02.957Z,76.25
2022-12-15T11:22:44.056Z,75.22
2022-12-15T11:25:51.423Z,73.20
2022-12-15T11:28:28.144Z,74.02
2022-12-15T11:31:05.385Z,68.35
2022-12-15T11:33:32.273Z,65.86
2022-12-15T11:36:12.168Z,61.55
2022-12-15T11:38:46.331Z,63.76
2022-12-15T11:41:30.931Z,62.78
2022-12-15T11:44:18.862Z,59.90
2022-12-15T11:47:16.820Z,59.06
2022-12-15T11:49:49.401Z,57.02
2022-12-15T11:52:41.269Z,61.68
2022-12-15T11:55:41.375Z,63.27
2022-12-15T11:58:21.769Z,59.77
2022-12-15T12:01:09.157Z,59.75
2022-12-15T12:04:07.867Z,60.58
2022-12-15T12:06:55.620Z,63.74
2022-12-15T12:09:31.652Z,68.12
2022-12-15T12:12:14.545Z,71.52
2022-12-15T12:14:59.913Z,70.86
2022-12-15T12:17:40.444Z,72.67
2022-12-15T12:20:40.268Z,74.57
2022-12-15T12:23:38.151Z,75.90
2022-12-15T12:26:10.705Z,77.21
2022-12-15T12:29:04.200Z,76.11
2022-12-15T12:32:00.598Z,75.99
2022-12-15T12:35:30.907Z,76.84
2022-12-15T12:38:03.115Z,77.37
2022-12-15T12:40:48.988Z,78.19
2022-12-15T12:46:25.503Z,79.76
2022-12-15T12:48:58.864Z,80.28
2022-12-15T12:51:34.152Z,80.77
2022-12-15T12:54:01.702Z,80.38
2022-12-15T12:56:45.423Z,79.96
2022-12-15T12:59:49.244Z,80.04
2022-12-15T13:02:21.811Z,80.13
2022-12-15T13:04:57.444Z,79.19
2022-12-15T13:07:35.286Z,80.06
2022-12-15T13:10:16.461Z,79.79
2022-12-15T13:12:55.776Z,80.61
2022-12-15T13:15:28.260Z,75.85
2022-12-15T13:17:59.779Z,76.18
2022-12-15T13:20:29.069Z,73.11
2022-12-15T13:22:56.804Z,74.98
2022-12-15T13:25:38.201Z,74.15
2022-12-15T13:28:44.327Z,76.79
2022-12-15T13:31:18.337Z,77.19
2022-12-15T13:33:48.805Z,78.01
2022-12-15T13:36:37.199Z,78.40
2022-12-15T13:39:03.583Z,79.16
2022-12-15T13:41:29.980Z,80.26
2022-12-15T13:43:58.533Z,80.64
2022-12-15T13:46:35.230Z,81.26
2022-12-15T13:49:13.677Z,80.66
2022-12-15T13:51:43.734Z,81.80
2022-12-15T13:54:34.039Z,80.85
2022-12-15T13:57:09.402Z,81.09
2022-12-15T13:59:51.954Z,81.14
2022-12-15T14:02:31.538Z,82.06
2022-12-15T14:05:03.983Z,81.82
2022-12-15T14:07:30.853Z,82.24
2022-12-15T14:09:57.606Z,82.36
2022-12-15T14:12:25.349Z,83.07
2022-12-15T14:14:51.849Z,83.33
2022-12-15T14:17:19.444Z,82.98
2022-12-15T14:19:50.775Z,83.73
2022-12-15T14:25:19.400Z,83.74
2022-12-15T14:27:45.964Z,84.36
2022-12-15T14:30:29.039Z,83.79
2022-12-15T14:33:01.680Z,84.19
2022-12-15T14:35:36.167Z,84.02
2022-12-15T14:38:08.673Z,84.76
2022-12-15T14:40:37.662Z,84.81
2022-12-15T14:43:06.064Z,85.05
2022-12-15T14:45:32.833Z,85.12
2022-12-15T14:51:00.857Z,85.13
2022-12-15T14:53:33.636Z,84.80
2022-12-15T14:56:14.602Z,85.05
2022-12-15T14:58:41.485Z,85.19
2022-12-15T15:01:26.917Z,84.75
2022-12-15T15:03:07.203Z,78.82
2022-12-15T15:03:09.715Z,54.68
2022-12-15T15:03:16.610Z,83.51
2022-12-15T15:04:02.017Z,85.28
2022-12-15T15:06:37.695Z,86.22
2022-12-15T15:09:21.279Z,85.64
2022-12-15T15:11:50.932Z,86.10
2022-12-15T15:14:23.617Z,86.42
2022-12-15T15:17:01.280Z,86.46
2022-12-15T15:19:28.264Z,86.52
2022-12-15T15:21:54.986Z,86.62
2022-12-15T15:24:25.069Z,86.77
2022-12-15T15:26:52.732Z,87.66
2022-12-15T15:29:36.089Z,87.70
2022-12-15T15:32:22.802Z,88.36
2022-12-15T15:34:49.714Z,89.31
2022-12-15T15:37:21.693Z,89.28
2022-12-15T15:39:50.362Z,89.57
2022-12-15T15:42:17.331Z,89.58
2022-12-15T15:44:44.296Z,89.72
2022-12-15T15:47:29.039Z,88.99
2022-12-15T15:49:59.529Z,88.77
2022-12-15T15:52:28.533Z,89.05
2022-12-15T15:54:55.086Z,89.33
2022-12-15T15:57:21.470Z,89.13
2022-12-15T15:59:48.067Z,90.01
2022-12-15T16:02:15.155Z,89.52
2022-12-15T16:04:42.959Z,89.15
2022-12-15T16:07:38.911Z,89.11
2022-12-15T16:10:12.425Z,88.99
2022-12-15T16:12:46.383Z,88.83
2022-12-15T16:15:23.983Z,88.82
2022-12-15T16:17:50.564Z,88.17
2022-12-15T16:20:21.815Z,88.55
2022-12-15T16:22:57.015Z,88.30
2022-12-15T16:25:41.238Z,89.00
2022-12-15T16:28:16.364Z,89.12
2022-12-15T16:30:43.239Z,89.32
2022-12-15T16:33:11.090Z,89.44
2022-12-15T16:35:37.976Z,89.71
2022-12-15T16:38:13.815Z,89.55
2022-12-15T16:40:40.226Z,89.56
2022-12-15T16:43:14.896Z,90.20
2022-12-15T16:45:44.257Z,90.98
2022-12-15T16:48:11.036Z,91.09
2022-12-15T16:50:40.026Z,91.35
2022-12-15T16:53:13.732Z,90.60
2022-12-15T16:55:40.417Z,90.63
2022-12-15T16:58:07.140Z,90.52
2022-12-15T17:00:37.475Z,90.10
2022-12-15T17:03:04.131Z,89.99
2022-12-15T17:05:33.806Z,89.36
2022-12-15T17:08:02.682Z,90.89
2022-12-15T17:10:33.560Z,91.99
2022-12-15T17:13:07.438Z,91.60
2022-12-15T17:15:33.894Z,92.23
2022-12-15T17:18:00.292Z,92.06
2022-12-15T17:20:30.212Z,92.02
2022-12-15T17:23:06.508Z,91.77
2022-12-15T17:26:18.093Z,92.05
2022-12-15T17:28:30.337Z,92.79
2022-12-15T17:30:57.188Z,92.49
2022-12-15T17:33:35.062Z,92.93
2022-12-15T17:36:09.993Z,92.96
2022-12-15T17:38:36.348Z,92.98
2022-12-15T17:41:03.279Z,92.47
2022-12-15T17:43:35.786Z,92.97
2022-12-15T17:46:02.518Z,92.77
2022-12-15T17:48:28.939Z,92.10
2022-12-15T17:50:56.709Z,92.69
2022-12-15T17:53:24.373Z,91.83
2022-12-15T17:55:53.264Z,92.27
2022-12-15T17:58:23.322Z,91.54
2022-12-15T18:00:54.337Z,91.63
2022-12-15T18:03:21.718Z,91.77
2022-12-15T18:05:50.705Z,91.86
2022-12-15T18:08:20.167Z,91.93
2022-12-15T18:10:58.069Z,91.73
2022-12-15T18:13:34.818Z,91.37
2022-12-15T18:16:02.867Z,91.35
2022-12-15T18:18:29.562Z,91.17
2022-12-15T18:20:59.683Z,90.62
2022-12-15T18:23:29.937Z,90.33
2022-12-15T18:26:02.691Z,90.05
2022-12-15T18:28:32.702Z,89.95
2022-12-15T18:31:19.127Z,89.82
2022-12-15T18:33:45.898Z,89.68
2022-12-15T18:36:12.635Z,89.82
2022-12-15T18:38:39.493Z,90.16
2022-12-15T18:41:12.769Z,90.06
2022-12-15T18:43:41.049Z,89.60
2022-12-15T18:46:16.480Z,89.64
2022-12-15T18:48:44.645Z,89.53
2022-12-15T18:51:20.346Z,89.18
2022-12-15T18:53:48.013Z,89.88
2022-12-15T18:56:16.449Z,90.06
2022-12-15T18:58:43.098Z,90.00
2022-12-15T19:01:10.731Z,90.04
2022-12-15T19:03:38.324Z,90.21
2022-12-15T19:06:27.624Z,89.87
2022-12-15T19:08:54.432Z,90.17
2022-12-15T19:11:28.552Z,90.29
2022-12-15T19:13:55.083Z,89.70
2022-12-15T19:16:21.718Z,89.48
2022-12-15T19:18:55.444Z,90.27
2022-12-15T19:21:24.677Z,89.96
2022-12-15T19:23:54.896Z,90.15
2022-12-15T19:26:21.242Z,90.62
2022-12-15T19:28:47.658Z,90.62
2022-12-15T19:31:14.058Z,90.55
2022-12-15T19:33:40.392Z,90.85
2022-12-15T19:36:15.823Z,90.59
2022-12-15T19:38:42.921Z,90.82
2022-12-15T19:41:15.072Z,90.69
2022-12-15T19:43:41.472Z,90.89
2022-12-15T19:46:13.569Z,90.44
2022-12-15T19:48:40.090Z,90.11
2022-12-15T19:51:13.301Z,89.85
2022-12-15T19:53:39.945Z,89.78
2022-12-15T19:56:07.573Z,89.81
2022-12-15T19:58:35.308Z,89.67
2022-12-15T20:01:06.090Z,89.82
2022-12-15T20:03:33.955Z,90.43
2022-12-15T20:06:02.763Z,90.38
2022-12-15T20:08:43.698Z,90.11
2022-12-15T20:11:16.447Z,90.03
2022-12-15T20:13:43.016Z,89.61
2022-12-15T20:16:09.613Z,90.34
2022-12-15T20:18:36.221Z,90.62
2022-12-15T20:21:03.040Z,90.71
2022-12-15T20:23:29.817Z,91.41
2022-12-15T20:25:56.933Z,91.03
2022-12-15T20:28:29.448Z,91.27
2022-12-15T20:30:57.023Z,90.18
2022-12-15T20:33:23.813Z,89.88
2022-12-15T20:35:51.338Z,91.40
2022-12-15T20:38:31.480Z,90.56
2022-12-15T20:41:00.452Z,90.37
2022-12-15T20:43:29.388Z,90.74
2022-12-15T20:46:08.576Z,90.80
2022-12-15T20:48:36.106Z,90.76
2022-12-15T20:51:08.861Z,90.22
2022-12-15T20:53:36.061Z,90.43
2022-12-15T20:56:02.512Z,90.22
2022-12-15T20:58:33.110Z,90.19
2022-12-15T21:01:00.074Z,89.61
2022-12-15T21:03:31.077Z,89.48
2022-12-15T21:05:59.342Z,89.43
2022-12-15T21:08:31.452Z,89.52
2022-12-15T21:11:04.426Z,89.54
2022-12-15T21:13:33.585Z,88.97
2022-12-15T21:16:00.768Z,89.08
2022-12-15T21:19:10.768Z,88.87
2022-12-15T21:21:21.264Z,88.56
2022-12-15T21:23:48.354Z,87.91
2022-12-15T21:26:21.016Z,87.90
2022-12-15T21:28:49.230Z,88.19
2022-12-15T21:31:18.086Z,87.87
2022-12-15T21:33:47.773Z,88.80
2022-12-15T21:36:17.653Z,88.55
2022-12-15T21:38:47.149Z,88.59
2022-12-15T21:41:16.630Z,88.63
2022-12-15T21:43:43.404Z,88.49
2022-12-15T21:46:18.251Z,89.04
2022-12-15T21:48:46.148Z,88.11
2022-12-15T21:51:15.219Z,88.67
2022-12-15T21:53:42.532Z,88.74
2022-12-15T21:56:14.527Z,88.48
2022-12-15T21:58:40.867Z,88.92
2022-12-15T22:01:12.949Z,88.92
2022-12-15T22:03:39.320Z,88.84
2022-12-15T22:06:06.000Z,89.11
2022-12-15T22:08:32.634Z,89.00
2022-12-15T22:10:59.408Z,88.78
2022-12-15T22:13:26.046Z,88.71
2022-12-15T22:15:52.467Z,89.21
2022-12-15T22:18:21.059Z,89.46
2022-12-15T22:20:50.829Z,89.46
2022-12-15T22:23:20.387Z,90.10
2022-12-15T22:25:50.929Z,90.53
2022-12-15T22:28:26.538Z,90.82
2022-12-15T22:30:55.210Z,91.32
2022-12-15T22:33:24.346Z,91.04
2022-12-15T22:35:55.606Z,90.54
2022-12-15T22:38:23.799Z,90.44
2022-12-15T22:40:53.291Z,90.06
2022-12-15T22:43:41.492Z,90.48
2022-12-15T22:46:10.594Z,90.42
2022-12-15T22:48:40.816Z,89.82
2022-12-15T22:51:13.474Z,89.92
2022-12-15T22:53:39.880Z,90.02
2022-12-15T22:56:25.989Z,89.59
2022-12-15T22:58:57.840Z,89.64
2022-12-15T23:01:25.831Z,89.58
2022-12-15T23:03:53.247Z,90.15
2022-12-15T23:06:22.570Z,90.09
2022-12-15T23:08:55.629Z,89.98
2022-12-15T23:11:24.219Z,90.82
2022-12-15T23:13:50.537Z,90.73
2022-12-15T23:16:18.280Z,90.48
2022-12-15T23:18:45.406Z,90.72
2022-12-15T23:21:12.404Z,90.70
2022-12-15T23:23:38.766Z,90.89
2022-12-15T23:26:05.651Z,90.74
2022-12-15T23:28:32.863Z,91.21
2022-12-15T23:30:59.831Z,91.18
2022-12-15T23:33:28.242Z,91.55
2022-12-15T23:35:56.062Z,91.91
2022-12-15T23:38:23.298Z,91.89
2022-12-15T23:40:53.067Z,92.06
2022-12-15T23:43:20.711Z,92.06
2022-12-15T23:46:05.059Z,91.65
2022-12-15T23:48:37.201Z,92.70
2022-12-15T23:51:04.755Z,92.55
2022-12-15T23:53:31.786Z,92.59
2022-12-15T23:56:24.623Z,92.99
2022-12-15T23:58:59.147Z,92.78
